Time,TemperatureF,DewpointF,PressureIn,WindDirection,WindDirectionDegrees,WindSpeedMPH,WindSpeedGustMPH,Humidity,HourlyPrecipIn,Conditions,Clouds,dailyrainin,SoftwareType,DateUTC
2013-03-31 00:00:00,38.4,22.3,29.89,NW,307,0.0,1.0,52,0.00,,---,0.00,VWS V12.08,2013-03-31 04:00:00,
2013-03-31 00:05:00,38.2,22.6,29.90,NW,307,0.0,0.0,53,0.00,,---,0.00,VWS V12.08,2013-03-31 04:05:00,
2013-03-31 00:10:00,38.0,23.3,29.90,NW,308,0.0,0.0,55,0.00,,---,0.00,VWS V12.08,2013-03-31 04:10:00,
2013-03-31 00:15:00,37.8,23.1,29.90,NW,307,0.0,0.0,55,0.00,,---,0.00,VWS V12.08,2013-03-31 04:15:00,
2013-03-31 00:20:00,37.7,23.4,29.90,NW,307,0.0,0.0,56,0.00,,---,0.00,VWS V12.08,2013-03-31 04:20:00,
2013-03-31 00:25:00,37.6,24.2,29.90,NW,308,0.0,0.0,58,0.00,,---,0.00,VWS V12.08,2013-03-31 04:25:00,
2013-03-31 00:30:00,37.5,24.5,29.90,NW,308,1.0,2.0,59,0.00,,---,0.00,VWS V12.08,2013-03-31 04:30:00,
2013-03-31 00:35:00,37.2,24.2,29.91,NW,308,0.0,2.0,59,0.00,,---,0.00,VWS V12.08,2013-03-31 04:35:00,
2013-03-31 00:40:00,36.9,23.9,29.90,NW,308,0.0,2.0,59,0.00,,---,0.00,VWS V12.08,2013-03-31 04:40:00,
2013-03-31 00:45:00,36.8,23.8,29.90,NW,307,0.0,2.0,59,0.00,,---,0.00,VWS V12.08,2013-03-31 04:45:00,
2013-03-31 00:50:00,36.6,23.6,29.91,NW,307,0.0,2.0,59,0.00,,---,0.00,VWS V12.08,2013-03-31 04:50:00,
2013-03-31 00:55:00,36.5,24.0,29.91,NW,308,0.0,2.0,60,0.00,,---,0.00,VWS V12.08,2013-03-31 04:55:00,
2013-03-31 01:00:00,36.5,24.0,29.91,NW,308,0.0,2.0,60,0.00,,---,0.00,VWS V12.08,2013-03-31 05:00:00,
2013-03-31 01:05:00,36.4,25.0,29.91,NW,308,0.0,0.0,63,0.00,,---,0.00,VWS V12.08,2013-03-31 05:05:00,
2013-03-31 01:10:00,36.4,24.2,29.91,NW,307,0.0,0.0,61,0.00,,---,0.00,VWS V12.08,2013-03-31 05:10:00,
2013-03-31 01:15:00,36.3,24.1,29.91,NW,308,0.0,0.0,61,0.00,,---,0.00,VWS V12.08,2013-03-31 05:15:00,
2013-03-31 01:20:00,36.2,23.7,29.91,NW,308,0.0,0.0,60,0.00,,---,0.00,VWS V12.08,2013-03-31 05:20:00,
2013-03-31 01:25:00,36.1,24.4,29.91,NW,308,0.0,0.0,62,0.00,,---,0.00,VWS V12.08,2013-03-31 05:25:00,
2013-03-31 01:30:00,36.0,25.0,29.91,NW,308,0.0,0.0,64,0.00,,---,0.00,VWS V12.08,2013-03-31 05:30:00,
2013-03-31 01:35:00,35.7,24.7,29.91,NW,308,0.0,1.0,64,0.00,,---,0.00,VWS V12.08,2013-03-31 05:35:00,
2013-03-31 01:40:00,35.5,24.5,29.91,NW,308,0.0,1.0,64,0.00,,---,0.00,VWS V12.08,2013-03-31 05:40:00,
2013-03-31 01:45:00,35.3,24.4,29.91,NW,308,0.0,1.0,64,0.00,,---,0.00,VWS V12.08,2013-03-31 05:45:00,
2013-03-31 01:50:00,35.1,24.2,29.91,NW,307,0.0,1.0,64,0.00,,---,0.00,VWS V12.08,2013-03-31 05:50:00,
2013-03-31 01:55:00,34.9,24.3,29.91,NW,308,0.0,1.0,65,0.00,,---,0.00,VWS V12.08,2013-03-31 05:55:00,
2013-03-31 02:00:00,34.7,24.5,29.90,NW,308,0.0,1.0,66,0.00,,---,0.00,VWS V12.08,2013-03-31 06:00:00,
2013-03-31 02:05:00,34.4,24.6,29.90,NW,308,0.0,0.0,67,0.00,,---,0.00,VWS V12.08,2013-03-31 06:05:00,
2013-03-31 02:10:00,34.4,24.6,29.90,NW,308,0.0,0.0,67,0.00,,---,0.00,VWS V12.08,2013-03-31 06:10:00,
2013-03-31 02:15:00,34.4,24.6,29.90,NW,307,0.0,0.0,67,0.00,,---,0.00,VWS V12.08,2013-03-31 06:15:00,
2013-03-31 02:20:00,34.3,24.5,29.90,NW,308,0.0,0.0,67,0.00,,---,0.00,VWS V12.08,2013-03-31 06:20:00,
2013-03-31 02:25:00,34.2,24.4,29.90,NW,307,0.0,0.0,67,0.00,,---,0.00,VWS V12.08,2013-03-31 06:25:00,
2013-03-31 02:30:00,34.1,24.3,29.90,NW,308,0.0,0.0,67,0.00,,---,0.00,VWS V12.08,2013-03-31 06:30:00,
2013-03-31 02:35:00,34.0,24.6,29.90,NW,308,0.0,0.0,68,0.00,,---,0.00,VWS V12.08,2013-03-31 06:35:00,
2013-03-31 02:40:00,34.0,24.6,29.90,NW,308,0.0,0.0,68,0.00,,---,0.00,VWS V12.08,2013-03-31 06:40:00,
2013-03-31 02:45:00,33.9,24.5,29.90,NW,307,0.0,0.0,68,0.00,,---,0.00,VWS V12.08,2013-03-31 06:45:00,
2013-03-31 02:50:00,33.8,24.4,29.90,NW,308,0.0,0.0,68,0.00,,---,0.00,VWS V12.08,2013-03-31 06:50:00,
2013-03-31 02:55:00,33.7,24.6,29.90,NW,308,0.0,0.0,69,0.00,,---,0.00,VWS V12.08,2013-03-31 06:55:00,
2013-03-31 03:00:00,33.5,24.8,29.90,NW,308,0.0,0.0,70,0.00,,---,0.00,VWS V12.08,2013-03-31 07:00:00,
2013-03-31 03:05:00,33.3,24.6,29.89,NW,308,0.0,0.0,70,0.00,,---,0.00,VWS V12.08,2013-03-31 07:05:00,
2013-03-31 03:10:00,33.2,24.8,29.90,NW,308,0.0,1.0,71,0.00,,---,0.00,VWS V12.08,2013-03-31 07:10:00,
2013-03-31 03:15:00,33.1,24.7,29.90,NW,308,0.0,1.0,71,0.00,,---,0.00,VWS V12.08,2013-03-31 07:15:00,
2013-03-31 03:20:00,33.0,24.6,29.90,NW,308,0.0,2.0,71,0.00,,---,0.00,VWS V12.08,2013-03-31 07:20:00,
2013-03-31 03:25:00,32.9,24.9,29.90,NW,308,0.0,0.0,72,0.00,,---,0.00,VWS V12.08,2013-03-31 07:25:00,
2013-03-31 03:30:00,32.8,24.8,29.90,NW,308,0.0,2.0,72,0.00,,---,0.00,VWS V12.08,2013-03-31 07:30:00,
2013-03-31 03:35:00,32.7,25.0,29.90,NW,308,0.0,0.0,73,0.00,,---,0.00,VWS V12.08,2013-03-31 07:35:00,
2013-03-31 03:40:00,32.6,24.9,29.89,NW,308,0.0,0.0,73,0.00,,---,0.00,VWS V12.08,2013-03-31 07:40:00,
2013-03-31 03:45:00,32.5,24.8,29.89,NW,307,0.0,0.0,73,0.00,,---,0.00,VWS V12.08,2013-03-31 07:45:00,
2013-03-31 03:50:00,32.4,25.0,29.89,NW,308,0.0,0.0,74,0.00,,---,0.00,VWS V12.08,2013-03-31 07:50:00,
2013-03-31 03:55:00,32.3,25.0,29.90,NW,308,0.0,0.0,74,0.00,,---,0.00,VWS V12.08,2013-03-31 07:55:00,
2013-03-31 04:00:00,32.2,24.9,29.90,NW,308,0.0,1.0,74,0.00,,---,0.00,VWS V12.08,2013-03-31 08:00:00,
2013-03-31 04:05:00,32.0,25.0,29.90,NW,308,0.0,1.0,75,0.00,,---,0.00,VWS V12.08,2013-03-31 08:05:00,
2013-03-31 04:10:00,31.9,24.9,29.90,NW,308,0.0,1.0,75,0.00,,---,0.00,VWS V12.08,2013-03-31 08:10:00,
2013-03-31 04:15:00,31.8,25.1,29.90,NW,307,0.0,1.0,76,0.00,,---,0.00,VWS V12.08,2013-03-31 08:15:00,
2013-03-31 04:20:00,31.7,25.0,29.90,NW,308,0.0,1.0,76,0.00,,---,0.00,VWS V12.08,2013-03-31 08:20:00,
2013-03-31 04:25:00,31.5,25.1,29.90,NW,307,0.0,1.0,77,0.00,,---,0.00,VWS V12.08,2013-03-31 08:25:00,
2013-03-31 04:30:00,31.5,25.1,29.90,NW,307,0.0,1.0,77,0.00,,---,0.00,VWS V12.08,2013-03-31 08:30:00,
2013-03-31 04:34:00,31.4,25.4,29.90,NW,308,0.0,0.0,78,0.00,,---,0.00,VWS V12.08,2013-03-31 08:34:00,
2013-03-31 04:39:00,31.4,25.4,29.90,NW,307,0.0,0.0,78,0.00,,---,0.00,VWS V12.08,2013-03-31 08:39:00,
2013-03-31 04:44:00,31.3,25.2,29.90,NW,308,0.0,0.0,78,0.00,,---,0.00,VWS V12.08,2013-03-31 08:44:00,
2013-03-31 04:49:00,31.2,25.1,29.90,NW,308,0.0,0.0,78,0.00,,---,0.00,VWS V12.08,2013-03-31 08:49:00,
2013-03-31 04:54:00,31.2,25.1,29.90,NW,307,0.0,0.0,78,0.00,,---,0.00,VWS V12.08,2013-03-31 08:54:00,
2013-03-31 04:59:00,31.1,25.4,29.90,NW,307,0.0,1.0,79,0.00,,---,0.00,VWS V12.08,2013-03-31 08:59:00,
2013-03-31 05:04:00,31.0,25.3,29.91,NW,308,0.0,0.0,79,0.00,,---,0.00,VWS V12.08,2013-03-31 09:04:00,
2013-03-31 05:09:00,31.0,25.3,29.91,NW,308,0.0,0.0,79,0.00,,---,0.00,VWS V12.08,2013-03-31 09:09:00,
2013-03-31 05:14:00,30.9,25.2,29.91,NW,308,0.0,0.0,79,0.00,,---,0.00,VWS V12.08,2013-03-31 09:14:00,
2013-03-31 05:19:00,30.8,25.1,29.90,NW,307,0.0,0.0,79,0.00,,---,0.00,VWS V12.08,2013-03-31 09:19:00,
2013-03-31 05:24:00,30.8,25.1,29.90,NW,308,0.0,0.0,79,0.00,,---,0.00,VWS V12.08,2013-03-31 09:24:00,
2013-03-31 05:29:00,30.7,25.3,29.90,NW,308,0.0,0.0,80,0.00,,---,0.00,VWS V12.08,2013-03-31 09:29:00,
2013-03-31 05:34:00,30.7,25.3,29.90,NW,307,0.0,0.0,80,0.00,,---,0.00,VWS V12.08,2013-03-31 09:34:00,
2013-03-31 05:39:00,30.6,25.2,29.90,NW,307,0.0,0.0,80,0.00,,---,0.00,VWS V12.08,2013-03-31 09:39:00,
2013-03-31 05:44:00,30.6,25.5,29.90,NW,308,0.0,0.0,81,0.00,,---,0.00,VWS V12.08,2013-03-31 09:44:00,
2013-03-31 05:49:00,30.5,25.4,29.90,NW,308,0.0,0.0,81,0.00,,---,0.00,VWS V12.08,2013-03-31 09:49:00,
2013-03-31 05:54:00,30.4,25.3,29.90,NW,308,0.0,0.0,81,0.00,,---,0.00,VWS V12.08,2013-03-31 09:54:00,
2013-03-31 05:59:00,30.3,25.2,29.90,NW,307,0.0,0.0,81,0.00,,---,0.00,VWS V12.08,2013-03-31 09:59:00,
2013-03-31 06:04:00,30.2,25.4,29.90,NW,308,0.0,0.0,82,0.00,,---,0.00,VWS V12.08,2013-03-31 10:04:00,
2013-03-31 06:09:00,30.2,25.4,29.90,NW,308,0.0,0.0,82,0.00,,---,0.00,VWS V12.08,2013-03-31 10:09:00,
2013-03-31 06:14:00,30.1,25.3,29.90,NW,308,0.0,0.0,82,0.00,,---,0.00,VWS V12.08,2013-03-31 10:14:00,
2013-03-31 06:19:00,30.1,25.3,29.90,NW,307,0.0,0.0,82,0.00,,---,0.00,VWS V12.08,2013-03-31 10:19:00,
2013-03-31 06:24:00,30.0,25.2,29.90,NW,308,0.0,0.0,82,0.00,,---,0.00,VWS V12.08,2013-03-31 10:24:00,
2013-03-31 06:29:00,29.9,25.1,29.90,NW,308,0.0,0.0,82,0.00,,---,0.00,VWS V12.08,2013-03-31 10:29:00,
2013-03-31 06:34:00,29.8,25.0,29.90,NW,308,0.0,0.0,82,0.00,,---,0.00,VWS V12.08,2013-03-31 10:34:00,
2013-03-31 06:39:00,29.8,25.0,29.90,NW,308,0.0,0.0,82,0.00,,---,0.00,VWS V12.08,2013-03-31 10:39:00,
2013-03-31 06:44:00,29.8,25.0,29.90,NW,307,0.0,0.0,82,0.00,,---,0.00,VWS V12.08,2013-03-31 10:44:00,
2013-03-31 06:49:00,29.8,25.3,29.91,NW,308,0.0,1.0,83,0.00,,---,0.00,VWS V12.08,2013-03-31 10:49:00,
2013-03-31 06:54:00,29.9,25.1,29.91,NW,308,0.0,1.0,82,0.00,,---,0.00,VWS V12.08,2013-03-31 10:54:00,
2013-03-31 06:59:00,29.9,25.1,29.91,NW,308,0.0,1.0,82,0.00,,---,0.00,VWS V12.08,2013-03-31 10:59:00,
2013-03-31 07:04:00,30.0,25.2,29.91,NW,307,0.0,0.0,82,0.00,,---,0.00,VWS V12.08,2013-03-31 11:04:00,
2013-03-31 07:09:00,30.1,25.3,29.91,NW,307,0.0,0.0,82,0.00,,---,0.00,VWS V12.08,2013-03-31 11:09:00,
2013-03-31 07:14:00,30.2,25.7,29.92,NW,308,0.0,0.0,83,0.00,,---,0.00,VWS V12.08,2013-03-31 11:14:00,
2013-03-31 07:19:00,30.3,25.8,29.92,NW,308,0.0,0.0,83,0.00,,---,0.00,VWS V12.08,2013-03-31 11:19:00,
2013-03-31 07:24:00,30.4,25.6,29.92,NW,308,0.0,0.0,82,0.00,,---,0.00,VWS V12.08,2013-03-31 11:24:00,
2013-03-31 07:29:00,30.6,25.8,29.92,NW,307,0.0,0.0,82,0.00,,---,0.00,VWS V12.08,2013-03-31 11:29:00,
2013-03-31 07:34:00,30.8,26.0,29.92,NW,308,0.0,0.0,82,0.00,,---,0.00,VWS V12.08,2013-03-31 11:34:00,
2013-03-31 07:39:00,31.0,26.2,29.92,NW,308,0.0,0.0,82,0.00,,---,0.00,VWS V12.08,2013-03-31 11:39:00,
2013-03-31 07:44:00,31.2,26.4,29.91,NW,307,0.0,0.0,82,0.00,,---,0.00,VWS V12.08,2013-03-31 11:44:00,
2013-03-31 07:49:00,31.4,26.5,29.91,NW,307,0.0,0.0,82,0.00,,---,0.00,VWS V12.08,2013-03-31 11:49:00,
2013-03-31 07:54:00,31.6,26.8,29.91,NW,307,0.0,0.0,82,0.00,,---,0.00,VWS V12.08,2013-03-31 11:54:00,
2013-03-31 07:59:00,31.9,26.7,29.91,NW,308,0.0,0.0,81,0.00,,---,0.00,VWS V12.08,2013-03-31 11:59:00,
2013-03-31 08:04:00,32.1,26.9,29.91,NW,308,0.0,0.0,81,0.00,,---,0.00,VWS V12.08,2013-03-31 12:04:00,
2013-03-31 08:09:00,32.5,27.0,29.91,NW,307,0.0,0.0,80,0.00,,---,0.00,VWS V12.08,2013-03-31 12:09:00,
2013-03-31 08:14:00,32.8,27.0,29.91,NW,307,0.0,0.0,79,0.00,,---,0.00,VWS V12.08,2013-03-31 12:14:00,
2013-03-31 08:19:00,33.4,27.6,29.90,NW,308,0.0,0.0,79,0.00,,---,0.00,VWS V12.08,2013-03-31 12:19:00,
2013-03-31 08:24:00,34.0,27.9,29.90,NW,308,0.0,0.0,78,0.00,,---,0.00,VWS V12.08,2013-03-31 12:24:00,
2013-03-31 08:29:00,34.6,28.5,29.90,NW,308,0.0,0.0,78,0.00,,---,0.00,VWS V12.08,2013-03-31 12:29:00,
2013-03-31 08:34:00,35.4,28.9,29.90,NW,307,0.0,0.0,77,0.00,,---,0.00,VWS V12.08,2013-03-31 12:34:00,
2013-03-31 08:39:00,36.0,29.2,29.90,NW,308,0.0,0.0,76,0.00,,---,0.00,VWS V12.08,2013-03-31 12:39:00,
2013-03-31 08:44:00,36.5,28.7,29.90,NW,308,0.0,1.0,73,0.00,,---,0.00,VWS V12.08,2013-03-31 12:44:00,
2013-03-31 08:49:00,37.1,28.6,29.90,NW,307,0.0,1.0,71,0.00,,---,0.00,VWS V12.08,2013-03-31 12:49:00,
2013-03-31 08:54:00,38.0,28.8,29.90,NW,307,0.0,1.0,69,0.00,,---,0.00,VWS V12.08,2013-03-31 12:54:00,
2013-03-31 08:59:00,38.8,28.8,29.90,NW,308,0.0,1.0,67,0.00,,---,0.00,VWS V12.08,2013-03-31 12:59:00,
2013-03-31 09:04:00,39.6,28.4,29.90,NW,307,0.0,1.0,64,0.00,,---,0.00,VWS V12.08,2013-03-31 13:04:00,
2013-03-31 09:09:00,40.4,28.0,29.90,NW,308,0.0,1.0,61,0.00,,---,0.00,VWS V12.08,2013-03-31 13:09:00,
2013-03-31 09:14:00,41.1,28.3,29.90,WSW,242,1.0,2.0,60,0.00,,---,0.00,VWS V12.08,2013-03-31 13:14:00,
2013-03-31 09:19:00,41.8,28.1,29.90,SSE,163,0.0,3.0,58,0.00,,---,0.00,VWS V12.08,2013-03-31 13:19:00,
2013-03-31 09:24:00,42.6,28.0,29.90,SSE,163,2.0,3.0,56,0.00,,---,0.00,VWS V12.08,2013-03-31 13:24:00,
2013-03-31 09:29:00,43.4,28.3,29.90,SSE,163,0.0,3.0,55,0.00,,---,0.00,VWS V12.08,2013-03-31 13:29:00,
2013-03-31 09:34:00,44.1,28.1,29.90,West,259,0.0,2.0,53,0.00,,---,0.00,VWS V12.08,2013-03-31 13:34:00,
2013-03-31 09:39:00,45.0,28.0,29.90,South,187,0.0,3.0,51,0.00,,---,0.00,VWS V12.08,2013-03-31 13:39:00,
2013-03-31 09:44:00,45.7,27.6,29.90,SSE,160,1.0,4.0,49,0.00,,---,0.00,VWS V12.08,2013-03-31 13:44:00,
2013-03-31 09:49:00,46.8,27.6,29.90,SSE,155,1.0,4.0,47,0.00,,---,0.00,VWS V12.08,2013-03-31 13:49:00,
2013-03-31 09:54:00,47.8,27.5,29.90,SSE,166,0.0,4.0,45,0.00,,---,0.00,VWS V12.08,2013-03-31 13:54:00,
2013-03-31 09:59:00,48.8,26.7,29.89,SSE,163,0.0,5.0,42,0.00,,---,0.00,VWS V12.08,2013-03-31 13:59:00,
2013-03-31 10:04:00,49.6,26.3,29.89,SSE,150,2.0,5.0,40,0.00,,---,0.00,VWS V12.08,2013-03-31 14:04:00,
2013-03-31 10:09:00,50.3,27.5,29.89,SSE,148,0.0,5.0,41,0.00,,---,0.00,VWS V12.08,2013-03-31 14:09:00,
2013-03-31 10:14:00,51.0,26.3,29.89,SE,138,2.0,5.0,38,0.00,,---,0.00,VWS V12.08,2013-03-31 14:14:00,
2013-03-31 10:19:00,51.7,26.3,29.89,SSE,149,0.0,5.0,37,0.00,,---,0.00,VWS V12.08,2013-03-31 14:19:00,
2013-03-31 10:24:00,52.5,25.7,29.89,SSE,150,4.0,7.0,35,0.00,,---,0.00,VWS V12.08,2013-03-31 14:24:00,
2013-03-31 10:29:00,53.3,26.4,29.88,ENE,66,1.0,7.0,35,0.00,,---,0.00,VWS V12.08,2013-03-31 14:29:00,
2013-03-31 10:34:00,53.9,26.9,29.88,SW,222,2.0,3.0,35,0.00,,---,0.00,VWS V12.08,2013-03-31 14:34:00,
2013-03-31 10:39:00,54.5,26.0,29.88,SSE,165,0.0,5.0,33,0.00,,---,0.00,VWS V12.08,2013-03-31 14:39:00,
2013-03-31 10:44:00,55.2,27.3,29.88,SSE,153,0.0,5.0,34,0.00,,---,0.00,VWS V12.08,2013-03-31 14:44:00,
2013-03-31 10:49:00,55.7,27.1,29.88,SW,223,1.0,5.0,33,0.00,,---,0.00,VWS V12.08,2013-03-31 14:49:00,
2013-03-31 10:54:00,56.3,26.8,29.88,SSE,156,3.0,5.0,32,0.00,,---,0.00,VWS V12.08,2013-03-31 14:54:00,
2013-03-31 10:59:00,56.7,27.2,29.88,West,276,1.0,5.0,32,0.00,,---,0.00,VWS V12.08,2013-03-31 14:59:00,
2013-03-31 11:04:00,57.1,27.5,29.88,South,178,1.0,3.0,32,0.00,,---,0.00,VWS V12.08,2013-03-31 15:04:00,
2013-03-31 11:09:00,57.7,27.3,29.88,West,268,0.0,6.0,31,0.00,,---,0.00,VWS V12.08,2013-03-31 15:09:00,
2013-03-31 11:14:00,58.2,27.7,29.88,West,264,1.0,6.0,31,0.00,,---,0.00,VWS V12.08,2013-03-31 15:14:00,
2013-03-31 11:19:00,58.7,27.4,29.88,ESE,103,4.0,7.0,30,0.00,,---,0.00,VWS V12.08,2013-03-31 15:19:00,
2013-03-31 11:24:00,59.0,27.6,29.88,SW,228,2.0,7.0,30,0.00,,---,0.00,VWS V12.08,2013-03-31 15:24:00,
2013-03-31 11:29:00,59.0,26.0,29.88,SSE,157,0.0,8.0,28,0.00,,---,0.00,VWS V12.08,2013-03-31 15:29:00,
2013-03-31 11:34:00,59.4,27.2,29.87,South,182,4.0,5.0,29,0.00,,---,0.00,VWS V12.08,2013-03-31 15:34:00,
2013-03-31 11:39:00,59.6,27.3,29.87,SE,137,4.0,6.0,29,0.00,,---,0.00,VWS V12.08,2013-03-31 15:39:00,
2013-03-31 11:44:00,59.6,26.5,29.86,South,189,3.0,14.0,28,0.00,,---,0.00,VWS V12.08,2013-03-31 15:44:00,
2013-03-31 11:49:00,59.6,27.3,29.86,South,169,0.0,14.0,29,0.00,,---,0.00,VWS V12.08,2013-03-31 15:49:00,
2013-03-31 11:54:00,59.7,27.4,29.86,South,180,0.0,14.0,29,0.00,,---,0.00,VWS V12.08,2013-03-31 15:54:00,
2013-03-31 11:59:00,60.0,26.8,29.86,SSW,203,1.0,14.0,28,0.00,,---,0.00,VWS V12.08,2013-03-31 15:59:00,
2013-03-31 12:04:00,60.5,27.3,29.86,SE,138,1.0,3.0,28,0.00,,---,0.00,VWS V12.08,2013-03-31 16:04:00,
2013-03-31 12:09:00,60.9,25.8,29.86,SE,141,4.0,10.0,26,0.00,,---,0.00,VWS V12.08,2013-03-31 16:09:00,
2013-03-31 12:14:00,61.1,27.8,29.85,SE,138,4.0,10.0,28,0.00,,---,0.00,VWS V12.08,2013-03-31 16:14:00,
2013-03-31 12:19:00,61.5,27.2,29.85,WSW,252,1.0,10.0,27,0.00,,---,0.00,VWS V12.08,2013-03-31 16:19:00,
2013-03-31 12:24:00,61.9,27.6,29.85,SW,232,3.0,10.0,27,0.00,,---,0.00,VWS V12.08,2013-03-31 16:24:00,
2013-03-31 12:29:00,62.1,27.8,29.84,SW,219,2.0,10.0,27,0.00,,---,0.00,VWS V12.08,2013-03-31 16:29:00,
2013-03-31 12:34:00,62.3,27.0,29.84,SSE,147,2.0,5.0,26,0.00,,---,0.00,VWS V12.08,2013-03-31 16:34:00,
2013-03-31 12:39:00,62.1,26.8,29.84,South,170,1.0,9.0,26,0.00,,---,0.00,VWS V12.08,2013-03-31 16:39:00,
2013-03-31 12:44:00,62.2,26.9,29.84,SSE,157,4.0,10.0,26,0.00,,---,0.00,VWS V12.08,2013-03-31 16:44:00,
2013-03-31 12:49:00,62.2,26.9,29.84,South,186,1.0,10.0,26,0.00,,---,0.00,VWS V12.08,2013-03-31 16:49:00,
2013-03-31 12:54:00,62.2,26.9,29.83,SSE,165,1.0,10.0,26,0.00,,---,0.00,VWS V12.08,2013-03-31 16:54:00,
2013-03-31 12:59:00,62.2,26.9,29.83,West,279,0.0,10.0,26,0.00,,---,0.00,VWS V12.08,2013-03-31 16:59:00,
2013-03-31 13:04:00,62.6,27.3,29.83,South,187,1.0,5.0,26,0.00,,---,0.00,VWS V12.08,2013-03-31 17:04:00,
2013-03-31 13:09:00,62.8,27.4,29.83,SSE,168,5.0,9.0,26,0.00,,---,0.00,VWS V12.08,2013-03-31 17:09:00,
2013-03-31 13:14:00,62.9,28.4,29.83,East,88,2.0,9.0,27,0.00,,---,0.00,VWS V12.08,2013-03-31 17:14:00,
2013-03-31 13:19:00,62.6,27.3,29.82,SSE,153,2.0,13.0,26,0.00,,---,0.00,VWS V12.08,2013-03-31 17:19:00,
2013-03-31 13:24:00,62.6,28.2,29.82,South,189,1.0,13.0,27,0.00,,---,0.00,VWS V12.08,2013-03-31 17:24:00,
2013-03-31 13:29:00,62.8,28.4,29.81,South,175,3.0,13.0,27,0.00,,---,0.00,VWS V12.08,2013-03-31 17:29:00,
2013-03-31 13:34:00,62.4,27.1,29.82,ESE,116,1.0,12.0,26,0.00,,---,0.00,VWS V12.08,2013-03-31 17:34:00,
2013-03-31 13:39:00,62.3,27.9,29.81,SE,137,1.0,12.0,27,0.00,,---,0.00,VWS V12.08,2013-03-31 17:39:00,
2013-03-31 13:44:00,62.3,27.0,29.81,SSE,158,3.0,12.0,26,0.00,,---,0.00,VWS V12.08,2013-03-31 17:44:00,
2013-03-31 13:49:00,62.2,27.8,29.80,SSW,205,0.0,12.0,27,0.00,,---,0.00,VWS V12.08,2013-03-31 17:49:00,
2013-03-31 13:54:00,61.9,28.5,29.81,South,179,3.0,12.0,28,0.00,,---,0.00,VWS V12.08,2013-03-31 17:54:00,
2013-03-31 13:59:00,61.9,27.6,29.80,SSE,164,0.0,12.0,27,0.00,,---,0.00,VWS V12.08,2013-03-31 17:59:00,
2013-03-31 14:04:00,61.9,27.6,29.80,SSE,166,0.0,14.0,27,0.00,,---,0.00,VWS V12.08,2013-03-31 18:04:00,
2013-03-31 14:09:00,61.8,26.6,29.80,SSE,157,6.0,15.0,26,0.00,,---,0.00,VWS V12.08,2013-03-31 18:09:00,
2013-03-31 14:14:00,61.6,28.2,29.80,SSE,165,0.0,15.0,28,0.00,,---,0.00,VWS V12.08,2013-03-31 18:14:00,
2013-03-31 14:19:00,61.7,28.3,29.80,South,169,0.0,15.0,28,0.00,,---,0.00,VWS V12.08,2013-03-31 18:19:00,
2013-03-31 14:24:00,62.0,27.7,29.79,South,182,0.0,15.0,27,0.00,,---,0.00,VWS V12.08,2013-03-31 18:24:00,
2013-03-31 14:29:00,62.4,28.0,29.79,SSW,196,0.0,15.0,27,0.00,,---,0.00,VWS V12.08,2013-03-31 18:29:00,
2013-03-31 14:34:00,62.5,28.1,29.79,SW,229,0.0,3.0,27,0.00,,---,0.00,VWS V12.08,2013-03-31 18:34:00,
2013-03-31 14:39:00,62.4,28.0,29.78,SW,229,0.0,4.0,27,0.00,,---,0.00,VWS V12.08,2013-03-31 18:39:00,
2013-03-31 14:44:00,62.5,29.0,29.78,South,177,4.0,4.0,28,0.00,,---,0.00,VWS V12.08,2013-03-31 18:44:00,
2013-03-31 14:49:00,62.3,28.8,29.78,SW,217,0.0,7.0,28,0.00,,---,0.00,VWS V12.08,2013-03-31 18:49:00,
2013-03-31 14:54:00,62.4,28.9,29.78,SSW,209,2.0,7.0,28,0.00,,---,0.00,VWS V12.08,2013-03-31 18:54:00,
2013-03-31 14:59:00,62.3,27.9,29.78,SW,236,3.0,7.0,27,0.00,,---,0.00,VWS V12.08,2013-03-31 18:59:00,
2013-03-31 15:04:00,62.2,28.7,29.78,East,81,6.0,6.0,28,0.00,,---,0.00,VWS V12.08,2013-03-31 19:04:00,
2013-03-31 15:09:00,61.9,27.6,29.78,SW,231,0.0,6.0,27,0.00,,---,0.00,VWS V12.08,2013-03-31 19:09:00,
2013-03-31 15:14:00,61.5,28.1,29.78,SSW,210,0.0,6.0,28,0.00,,---,0.00,VWS V12.08,2013-03-31 19:14:00,
2013-03-31 15:19:00,61.3,27.9,29.78,SSW,209,0.0,6.0,28,0.00,,---,0.00,VWS V12.08,2013-03-31 19:19:00,
2013-03-31 15:24:00,61.2,28.7,29.77,SSW,209,4.0,6.0,29,0.00,,---,0.00,VWS V12.08,2013-03-31 19:24:00,
2013-03-31 15:29:00,60.7,27.4,29.77,SW,226,3.0,15.0,28,0.00,,---,0.00,VWS V12.08,2013-03-31 19:29:00,
2013-03-31 15:34:00,60.4,27.2,29.77,SSW,200,0.0,3.0,28,0.00,,---,0.00,VWS V12.08,2013-03-31 19:34:00,
2013-03-31 15:40:00,60.0,27.7,29.77,SW,220,1.0,0.0,29,0.00,,---,0.00,VWS V12.08,2013-03-31 19:40:00,
2013-03-31 15:45:00,59.8,27.5,29.77,SW,231,2.0,0.0,29,0.00,,---,0.00,VWS V12.08,2013-03-31 19:45:00,
2013-03-31 15:50:00,59.6,28.1,29.77,SSW,205,0.0,0.0,30,0.00,,---,0.00,VWS V12.08,2013-03-31 19:50:00,
2013-03-31 15:55:00,59.6,27.3,29.77,SW,226,0.0,12.0,29,0.00,,---,0.00,VWS V12.08,2013-03-31 19:55:00,
2013-03-31 16:00:00,59.4,26.3,29.77,SW,234,3.0,12.0,28,0.00,,---,0.00,VWS V12.08,2013-03-31 20:00:00,
2013-03-31 16:05:00,59.1,26.9,29.77,SSW,200,2.0,4.0,29,0.00,,---,0.00,VWS V12.08,2013-03-31 20:05:00,
2013-03-31 16:10:00,59.0,26.8,29.77,SW,222,0.0,7.0,29,0.00,,---,0.00,VWS V12.08,2013-03-31 20:10:00,
2013-03-31 16:15:00,59.0,27.6,29.77,South,186,1.0,7.0,30,0.00,,---,0.00,VWS V12.08,2013-03-31 20:15:00,
2013-03-31 16:20:00,58.6,27.3,29.77,WSW,242,1.0,7.0,30,0.00,,---,0.00,VWS V12.08,2013-03-31 20:20:00,
2013-03-31 16:25:00,58.5,27.2,29.76,SW,227,3.0,7.0,30,0.00,,---,0.00,VWS V12.08,2013-03-31 20:25:00,
2013-03-31 16:30:00,58.3,27.0,29.76,West,267,1.0,7.0,30,0.00,,---,0.00,VWS V12.08,2013-03-31 20:30:00,
2013-03-31 16:35:00,58.3,27.0,29.76,South,188,2.0,2.0,30,0.00,,---,0.00,VWS V12.08,2013-03-31 20:35:00,
2013-03-31 16:40:00,58.2,26.1,29.76,SSE,159,3.0,10.0,29,0.00,,---,0.00,VWS V12.08,2013-03-31 20:40:00,
2013-03-31 16:45:00,57.8,26.6,29.76,South,179,2.0,10.0,30,0.00,,---,0.00,VWS V12.08,2013-03-31 20:45:00,
2013-03-31 16:50:00,57.5,26.3,29.76,SSE,161,1.0,11.0,30,0.00,,---,0.00,VWS V12.08,2013-03-31 20:50:00,
2013-03-31 16:55:00,57.4,27.0,29.76,South,187,1.0,11.0,31,0.00,,---,0.00,VWS V12.08,2013-03-31 20:55:00,
2013-03-31 17:00:00,57.4,26.2,29.76,SSE,166,2.0,11.0,30,0.00,,---,0.00,VWS V12.08,2013-03-31 21:00:00,
2013-03-31 17:05:00,57.3,27.0,29.76,SW,227,2.0,10.0,31,0.00,,---,0.00,VWS V12.08,2013-03-31 21:05:00,
2013-03-31 17:10:00,57.2,26.9,29.76,SW,214,0.0,10.0,31,0.00,,---,0.00,VWS V12.08,2013-03-31 21:10:00,
2013-03-31 17:15:00,57.1,27.5,29.76,NE,40,2.0,10.0,32,0.00,,---,0.00,VWS V12.08,2013-03-31 21:15:00,
2013-03-31 17:20:00,57.0,28.2,29.76,ESE,120,9.0,12.0,33,0.00,,---,0.00,VWS V12.08,2013-03-31 21:20:00,
2013-03-31 17:25:00,56.6,30.0,29.76,East,80,3.0,14.0,36,0.00,,---,0.00,VWS V12.08,2013-03-31 21:25:00,
2013-03-31 17:30:00,56.3,30.4,29.76,SW,229,3.0,14.0,37,0.00,,---,0.00,VWS V12.08,2013-03-31 21:30:00,
2013-03-31 17:35:00,55.9,31.3,29.76,SW,217,1.0,11.0,39,0.00,,---,0.00,VWS V12.08,2013-03-31 21:35:00,
2013-03-31 17:40:00,55.6,32.3,29.76,NE,48,2.0,11.0,41,0.00,,---,0.00,VWS V12.08,2013-03-31 21:40:00,
2013-03-31 17:45:00,55.4,32.7,29.75,South,183,0.0,11.0,42,0.00,,---,0.00,VWS V12.08,2013-03-31 21:45:00,
2013-03-31 17:50:00,55.1,33.0,29.75,ENE,74,2.0,11.0,43,0.00,,---,0.00,VWS V12.08,2013-03-31 21:50:00,
2013-03-31 17:55:00,54.8,33.9,29.75,NE,47,1.0,11.0,45,0.00,,---,0.00,VWS V12.08,2013-03-31 21:55:00,
2013-03-31 18:00:00,54.7,33.8,29.75,ESE,118,6.0,11.0,45,0.00,,---,0.00,VWS V12.08,2013-03-31 22:00:00,
2013-03-31 18:04:00,54.4,34.1,29.74,SW,218,4.0,6.0,46,0.00,,---,0.00,VWS V12.08,2013-03-31 22:04:00,
2013-03-31 18:09:00,54.1,34.3,29.75,SE,124,1.0,7.0,47,0.00,,---,0.00,VWS V12.08,2013-03-31 22:09:00,
2013-03-31 18:14:00,53.9,34.7,29.75,SE,141,3.0,7.0,48,0.00,,---,0.00,VWS V12.08,2013-03-31 22:14:00,
2013-03-31 18:19:00,53.6,34.9,29.75,ESE,109,6.0,9.0,49,0.00,,---,0.00,VWS V12.08,2013-03-31 22:19:00,
2013-03-31 18:24:00,53.4,35.2,29.75,SE,143,0.0,9.0,50,0.00,,---,0.00,VWS V12.08,2013-03-31 22:24:00,
2013-03-31 18:29:00,53.2,35.6,29.74,ESE,122,6.0,9.0,51,0.00,,---,0.00,VWS V12.08,2013-03-31 22:29:00,
2013-03-31 18:34:00,53.0,35.4,29.75,SW,215,0.0,9.0,51,0.00,,---,0.00,VWS V12.08,2013-03-31 22:34:00,
2013-03-31 18:39:00,52.8,35.7,29.75,SE,127,1.0,9.0,52,0.00,,---,0.00,VWS V12.08,2013-03-31 22:39:00,
2013-03-31 18:44:00,52.7,36.1,29.75,SSE,167,0.0,9.0,53,0.00,,---,0.00,VWS V12.08,2013-03-31 22:44:00,
2013-03-31 18:49:00,52.6,36.0,29.74,SSE,167,6.0,11.0,53,0.00,,---,0.00,VWS V12.08,2013-03-31 22:49:00,
2013-03-31 18:54:00,52.3,36.2,29.74,SSE,148,1.0,11.0,54,0.00,,---,0.00,VWS V12.08,2013-03-31 22:54:00,
2013-03-31 18:59:00,52.2,36.1,29.74,SE,140,0.0,11.0,54,0.00,,---,0.00,VWS V12.08,2013-03-31 22:59:00,
2013-03-31 19:04:00,52.0,36.3,29.74,SSE,151,0.0,4.0,55,0.00,,---,0.00,VWS V12.08,2013-03-31 23:04:00,
2013-03-31 19:09:00,51.8,36.2,29.74,SE,141,0.0,5.0,55,0.00,,---,0.00,VWS V12.08,2013-03-31 23:09:00,
2013-03-31 19:14:00,51.8,36.2,29.74,SSW,196,0.0,5.0,55,0.00,,---,0.00,VWS V12.08,2013-03-31 23:14:00,
2013-03-31 19:19:00,51.7,36.1,29.74,SSE,150,0.0,5.0,55,0.00,,---,0.00,VWS V12.08,2013-03-31 23:19:00,
2013-03-31 19:24:00,51.5,36.3,29.74,South,186,3.0,5.0,56,0.00,,---,0.00,VWS V12.08,2013-03-31 23:24:00,
2013-03-31 19:29:00,51.5,36.8,29.74,SSE,155,1.0,6.0,57,0.00,,---,0.00,VWS V12.08,2013-03-31 23:29:00,
2013-03-31 19:34:00,51.3,36.6,29.74,SSE,159,1.0,7.0,57,0.00,,---,0.00,VWS V12.08,2013-03-31 23:34:00,
2013-03-31 19:39:00,51.2,37.0,29.74,SSE,150,2.0,7.0,58,0.00,,---,0.00,VWS V12.08,2013-03-31 23:39:00,
2013-03-31 19:44:00,51.1,36.8,29.74,NNW,329,0.0,7.0,58,0.00,,---,0.00,VWS V12.08,2013-03-31 23:44:00,
2013-03-31 19:49:00,51.0,37.2,29.73,South,186,2.0,7.0,59,0.00,,---,0.00,VWS V12.08,2013-03-31 23:49:00,
2013-03-31 19:54:00,50.9,37.5,29.73,SSE,162,1.0,7.0,60,0.00,,---,0.00,VWS V12.08,2013-03-31 23:54:00,
2013-03-31 19:59:00,50.8,37.8,29.73,SW,230,0.0,7.0,61,0.00,,---,0.00,VWS V12.08,2013-03-31 23:59:00,
2013-03-31 20:04:00,50.7,38.2,29.73,SE,146,0.0,4.0,62,0.00,,---,0.00,VWS V12.08,2013-04-01 00:04:00,
2013-03-31 20:09:00,50.6,38.5,29.73,SSE,157,0.0,4.0,63,0.00,,---,0.00,VWS V12.08,2013-04-01 00:09:00,
2013-03-31 20:14:00,50.5,38.8,29.73,SSE,159,1.0,5.0,64,0.00,,---,0.00,VWS V12.08,2013-04-01 00:14:00,
2013-03-31 20:19:00,50.3,39.0,29.72,South,173,0.0,5.0,65,0.00,,---,0.00,VWS V12.08,2013-04-01 00:19:00,
2013-03-31 20:24:00,50.1,38.8,29.72,SSE,163,2.0,5.0,65,0.00,,---,0.00,VWS V12.08,2013-04-01 00:24:00,
2013-03-31 20:29:00,50.0,39.1,29.71,SSE,148,0.0,5.0,66,0.00,,---,0.00,VWS V12.08,2013-04-01 00:29:00,
2013-03-31 20:34:00,49.9,39.0,29.71,SE,144,0.0,5.0,66,0.00,,---,0.00,VWS V12.08,2013-04-01 00:34:00,
2013-03-31 20:39:00,49.8,38.9,29.70,SE,124,1.0,5.0,66,0.00,,---,0.00,VWS V12.08,2013-04-01 00:39:00,
2013-03-31 20:44:00,49.7,38.8,29.70,SSE,152,2.0,5.0,66,0.00,,---,0.00,VWS V12.08,2013-04-01 00:44:00,
2013-03-31 20:49:00,49.7,38.8,29.70,SE,144,3.0,6.0,66,0.00,,---,0.00,VWS V12.08,2013-04-01 00:49:00,
2013-03-31 20:54:00,49.6,38.3,29.70,SSE,163,0.0,10.0,65,0.00,,---,0.00,VWS V12.08,2013-04-01 00:54:00,
2013-03-31 20:59:00,49.6,38.3,29.69,SE,139,0.0,10.0,65,0.00,,---,0.00,VWS V12.08,2013-04-01 00:59:00,
2013-03-31 21:04:00,49.5,38.2,29.68,NE,40,0.0,3.0,65,0.00,,---,0.00,VWS V12.08,2013-04-01 01:04:00,
2013-03-31 21:09:00,49.4,38.1,29.69,SSE,163,0.0,7.0,65,0.00,,---,0.00,VWS V12.08,2013-04-01 01:09:00,
2013-03-31 21:14:00,49.4,38.1,29.68,SSE,152,1.0,7.0,65,0.00,,---,0.00,VWS V12.08,2013-04-01 01:14:00,
2013-03-31 21:19:00,49.3,37.7,29.68,South,190,2.0,7.0,64,0.00,,---,0.00,VWS V12.08,2013-04-01 01:19:00,
2013-03-31 21:24:00,49.3,37.7,29.68,SSE,160,0.0,7.0,64,0.00,,---,0.00,VWS V12.08,2013-04-01 01:24:00,
2013-03-31 21:29:00,49.2,37.2,29.67,South,171,2.0,7.0,63,0.00,,---,0.00,VWS V12.08,2013-04-01 01:29:00,
2013-03-31 21:34:00,49.2,37.2,29.67,South,178,2.0,3.0,63,0.00,,---,0.00,VWS V12.08,2013-04-01 01:34:00,
2013-03-31 21:39:00,49.2,37.2,29.67,SSE,160,1.0,3.0,63,0.00,,---,0.00,VWS V12.08,2013-04-01 01:39:00,
2013-03-31 21:44:00,49.2,37.2,29.66,SSE,161,0.0,3.0,63,0.00,,---,0.00,VWS V12.08,2013-04-01 01:44:00,
2013-03-31 21:49:00,49.1,37.1,29.66,SSE,154,2.0,6.0,63,0.00,,---,0.00,VWS V12.08,2013-04-01 01:49:00,
2013-03-31 21:54:00,49.1,36.7,29.65,SE,137,1.0,6.0,62,0.00,,---,0.00,VWS V12.08,2013-04-01 01:54:00,
2013-03-31 21:59:00,49.0,36.6,29.65,SE,139,0.0,7.0,62,0.00,,---,0.00,VWS V12.08,2013-04-01 01:59:00,
2013-03-31 22:04:00,49.0,36.6,29.64,SE,134,0.0,3.0,62,0.00,,---,0.00,VWS V12.08,2013-04-01 02:04:00,
2013-03-31 22:09:00,49.0,36.2,29.63,ESE,115,0.0,9.0,61,0.00,,---,0.00,VWS V12.08,2013-04-01 02:09:00,
2013-03-31 22:14:00,49.0,36.2,29.63,SE,140,2.0,10.0,61,0.00,,---,0.00,VWS V12.08,2013-04-01 02:14:00,
2013-03-31 22:19:00,49.0,36.2,29.63,SSE,159,1.0,10.0,61,0.00,,---,0.00,VWS V12.08,2013-04-01 02:19:00,
2013-03-31 22:24:00,49.0,36.2,29.63,SE,130,1.0,10.0,61,0.00,,---,0.00,VWS V12.08,2013-04-01 02:24:00,
2013-03-31 22:29:00,49.0,36.2,29.62,SSE,158,2.0,10.0,61,0.00,,---,0.00,VWS V12.08,2013-04-01 02:29:00,
2013-03-31 22:34:00,49.1,36.7,29.62,SSE,150,3.0,13.0,62,0.00,,---,0.00,VWS V12.08,2013-04-01 02:34:00,
2013-03-31 22:39:00,48.9,38.1,29.62,SSE,156,3.0,13.0,66,0.00,,---,0.00,VWS V12.08,2013-04-01 02:39:00,
2013-03-31 22:44:00,48.7,38.6,29.61,SSE,148,2.0,13.0,68,0.00,,---,0.00,VWS V12.08,2013-04-01 02:44:00,
2013-03-31 22:49:00,48.5,38.8,29.61,SSE,167,0.0,13.0,69,0.00,,---,0.00,VWS V12.08,2013-04-01 02:49:00,
2013-03-31 22:54:00,48.3,39.0,29.60,SE,144,0.0,13.0,70,0.00,,---,0.00,VWS V12.08,2013-04-01 02:54:00,
2013-03-31 22:59:00,48.0,38.7,29.59,SE,141,3.0,13.0,70,0.00,,---,0.00,VWS V12.08,2013-04-01 02:59:00,
2013-03-31 23:04:00,47.9,38.6,29.58,ENE,78,0.0,7.0,70,0.00,,---,0.00,VWS V12.08,2013-04-01 03:04:00,
2013-03-31 23:09:00,47.8,39.2,29.58,ESE,105,0.0,7.0,72,0.00,,---,0.00,VWS V12.08,2013-04-01 03:09:00,
2013-03-31 23:14:00,47.8,39.2,29.57,North,355,1.0,7.0,72,0.00,,---,0.00,VWS V12.08,2013-04-01 03:14:00,
2013-03-31 23:20:00,47.6,39.7,29.57,East,91,1.0,11.0,74,0.00,,---,0.00,VWS V12.08,2013-04-01 03:20:00,
2013-03-31 23:25:00,47.5,40.0,29.56,South,183,0.0,11.0,75,0.01,,---,0.01,VWS V12.08,2013-04-01 03:25:00,
2013-03-31 23:30:00,47.3,40.5,29.56,SSE,165,1.0,11.0,77,0.01,,---,0.01,VWS V12.08,2013-04-01 03:30:00,
2013-03-31 23:35:00,47.2,41.0,29.55,SSE,155,0.0,7.0,79,0.01,,---,0.01,VWS V12.08,2013-04-01 03:35:00,
2013-03-31 23:40:00,46.9,41.1,29.55,South,176,3.0,7.0,80,0.01,,---,0.01,VWS V12.08,2013-04-01 03:40:00,
2013-03-31 23:45:00,46.7,41.5,29.55,SSE,152,2.0,7.0,82,0.01,,---,0.01,VWS V12.08,2013-04-01 03:45:00,
2013-03-31 23:50:00,46.5,41.6,29.55,SE,137,1.0,7.0,83,0.01,,---,0.01,VWS V12.08,2013-04-01 03:50:00,
2013-03-31 23:55:00,46.4,41.8,29.54,SE,144,2.0,9.0,84,0.01,,---,0.01,VWS V12.08,2013-04-01 03:55:00,